Time;durP1;ratioP1;P1;durP2;ratioP2;P2;SDS_P1;SDS_P2;PMS_P1;PMS_P2;Temp;Humidity;BMP_temperature;BMP_pressure;BME280_temperature;BME280_humidity;BME280_pressure;Samples;Min_cycle;Max_cycle;Signal;HPM_P1;HPM_P2
2023/02/22 00:00:44;;;;;;;3.90;3.33;;;19.10;47.90;;;;;;5052270;28;20417;-67
2023/02/22 00:03:11;;;;;;;4.63;3.50;;;19.10;47.90;;;;;;5053409;28;20475;-68
2023/02/22 00:05:38;;;;;;;4.77;3.60;;;19.10;47.90;;;;;;5053052;28;20463;-68
2023/02/22 00:08:08;;;;;;;3.90;3.60;;;19.10;47.90;;;;;;5051950;28;20460;-67
2023/02/22 00:10:37;;;;;;;4.50;4.00;;;19.10;47.80;;;;;;5053384;28;20430;-68
2023/02/22 00:13:04;;;;;;;4.00;3.60;;;19.10;47.80;;;;;;5051657;28;20489;-68
2023/02/22 00:15:30;;;;;;;4.43;4.03;;;19.10;47.80;;;;;;5053306;28;20413;-68
2023/02/22 00:17:56;;;;;;;4.20;3.57;;;19.10;47.80;;;;;;5053019;28;20451;-67
2023/02/22 00:20:22;;;;;;;4.83;3.30;;;19.10;47.80;;;;;;5053043;28;20233;-68
2023/02/22 00:22:50;;;;;;;5.17;3.83;;;19.10;47.70;;;;;;5052910;28;20178;-68
2023/02/22 00:25:17;;;;;;;5.00;4.00;;;19.10;47.70;;;;;;5053209;28;20464;-68
2023/02/22 00:27:46;;;;;;;5.27;3.83;;;19.10;47.70;;;;;;5053126;28;20417;-68
2023/02/22 00:30:18;;;;;;;3.93;3.53;;;19.00;47.60;;;;;;5052960;28;20520;-68
2023/02/22 00:32:45;;;;;;;4.73;4.33;;;19.00;47.60;;;;;;5052985;28;20424;-68
2023/02/22 00:35:16;;;;;;;4.90;3.67;;;19.00;47.60;;;;;;5053028;28;20477;-68
2023/02/22 00:37:41;;;;;;;3.97;3.57;;;19.00;47.50;;;;;;5053293;28;20421;-69
2023/02/22 00:40:14;;;;;;;4.07;3.67;;;19.00;47.60;;;;;;5053062;28;20425;-70
2023/02/22 00:42:39;;;;;;;5.03;3.90;;;19.00;47.50;;;;;;5052975;28;20199;-70
2023/02/22 00:45:06;;;;;;;3.50;3.20;;;19.00;47.50;;;;;;5053287;28;20448;-69
2023/02/22 00:47:31;;;;;;;8.13;4.30;;;19.00;47.50;;;;;;5052871;28;20261;-70
2023/02/22 00:49:57;;;;;;;4.00;3.30;;;19.00;47.50;;;;;;5052956;28;20441;-69
2023/02/22 00:52:23;;;;;;;4.10;3.60;;;19.00;47.50;;;;;;5052790;28;20429;-69
2023/02/22 00:54:48;;;;;;;4.20;3.50;;;19.00;47.50;;;;;;5052847;28;20655;-69
2023/02/22 00:57:14;;;;;;;4.37;3.97;;;19.00;47.50;;;;;;5052990;28;20200;-69
2023/02/22 00:59:40;;;;;;;5.23;3.77;;;19.00;47.50;;;;;;5053076;28;20665;-70
2023/02/22 01:02:05;;;;;;;4.40;4.00;;;19.00;47.40;;;;;;5056518;28;20647;-70
2023/02/22 01:04:31;;;;;;;4.20;3.80;;;18.90;47.40;;;;;;5057243;28;20190;-70
2023/02/22 01:06:59;;;;;;;4.00;3.60;;;18.90;47.30;;;;;;5056903;28;20214;-69
2023/02/22 01:09:24;;;;;;;3.80;3.50;;;18.90;47.40;;;;;;5055295;28;20179;-69
2023/02/22 01:11:54;;;;;;;4.37;3.97;;;18.90;47.30;;;;;;5056431;28;20441;-70
2023/02/22 01:14:22;;;;;;;5.07;3.60;;;18.90;47.30;;;;;;5056442;28;20238;-69
2023/02/22 01:16:54;;;;;;;4.30;3.47;;;18.90;47.30;;;;;;5056336;28;20432;-69
2023/02/22 01:19:20;;;;;;;4.83;4.00;;;18.90;47.30;;;;;;5056398;28;20424;-69
2023/02/22 01:21:47;;;;;;;4.40;3.93;;;18.90;47.30;;;;;;5056225;28;20445;-69
2023/02/22 01:24:15;;;;;;;4.23;3.83;;;18.90;47.30;;;;;;5056325;28;20421;-69
2023/02/22 01:26:42;;;;;;;3.63;3.33;;;18.90;47.30;;;;;;5056491;28;20418;-69
2023/02/22 01:29:13;;;;;;;6.00;3.80;;;18.90;47.20;;;;;;5056317;28;20835;-69
2023/02/22 01:31:42;;;;;;;4.27;3.70;;;18.90;47.20;;;;;;5056134;28;20968;-69
2023/02/22 01:34:09;;;;;;;4.00;3.63;;;18.90;47.20;;;;;;5055939;28;20473;-70
2023/02/22 01:36:35;;;;;;;4.80;3.90;;;18.90;47.20;;;;;;5056036;28;20422;-69
2023/02/22 01:39:01;;;;;;;4.20;3.67;;;18.80;47.10;;;;;;5056131;28;20421;-70
2023/02/22 01:41:27;;;;;;;4.73;4.33;;;18.80;47.10;;;;;;5055969;28;20187;-70
2023/02/22 01:43:52;;;;;;;3.83;3.40;;;18.80;47.70;;;;;;5056458;28;20416;-68
2023/02/22 01:46:26;;;;;;;4.50;3.87;;;18.80;47.10;;;;;;5056522;28;20242;-68
2023/02/22 01:49:01;;;;;;;4.40;4.00;;;18.80;47.10;;;;;;5055898;28;20305;-68
2023/02/22 01:51:32;;;;;;;4.57;3.80;;;18.80;47.10;;;;;;5055946;28;20827;-69
2023/02/22 01:54:14;;;;;;;5.03;4.63;;;18.80;47.10;;;;;;5055764;28;20475;-69
2023/02/22 01:56:46;;;;;;;4.37;3.90;;;18.80;47.00;;;;;;5056005;28;20405;-68
2023/02/22 01:59:13;;;;;;;4.10;3.70;;;18.80;47.10;;;;;;5055898;28;20456;-68
2023/02/22 02:01:43;;;;;;;4.67;4.17;;;18.80;47.00;;;;;;5055550;28;20421;-68
2023/02/22 02:04:18;;;;;;;4.27;3.87;;;18.80;47.00;;;;;;5055739;28;20414;-68
2023/02/22 02:06:44;;;;;;;4.23;3.83;;;18.80;47.00;;;;;;5055472;28;20780;-68
2023/02/22 02:09:16;;;;;;;3.93;3.50;;;18.80;47.00;;;;;;5055619;28;20566;-68
2023/02/22 02:11:42;;;;;;;4.30;3.90;;;18.80;47.00;;;;;;5053933;28;20445;-69
2023/02/22 02:14:09;;;;;;;4.07;3.67;;;18.70;46.90;;;;;;5055556;28;20873;-69
2023/02/22 02:16:42;;;;;;;5.23;4.50;;;18.70;46.90;;;;;;5056045;28;20544;-69
2023/02/22 02:19:20;;;;;;;4.77;3.33;;;18.70;46.90;;;;;;5055684;28;20405;-69
2023/02/22 02:22:29;;;;;;;4.43;4.00;;;18.70;46.90;;;;;;5055115;28;20437;-69
2023/02/22 02:25:16;;;;;;;4.07;3.67;;;18.70;46.90;;;;;;5054035;28;20948;-68
2023/02/22 02:28:18;;;;;;;4.43;3.50;;;18.70;46.90;;;;;;5055282;28;20432;-69
2023/02/22 02:31:15;;;;;;;4.20;3.80;;;18.70;46.90;;;;;;5055351;28;20483;-68
2023/02/22 02:34:04;;;;;;;4.07;3.73;;;18.70;46.90;;;;;;5050000;28;20623;-69
2023/02/22 02:36:52;;;;;;;3.40;3.10;;;18.60;46.80;;;;;;5055201;28;20433;-68
2023/02/22 02:39:21;;;;;;;6.20;4.60;;;18.60;46.80;;;;;;5054843;28;20410;-68
2023/02/22 02:41:50;;;;;;;5.93;4.40;;;18.60;46.80;;;;;;5054831;28;20422;-68
2023/02/22 02:44:32;;;;;;;4.57;3.50;;;18.60;46.80;;;;;;5054845;28;20492;-69
2023/02/22 02:47:28;;;;;;;4.30;3.90;;;18.60;46.80;;;;;;5054554;28;20900;-69
2023/02/22 02:50:00;;;;;;;3.50;3.20;;;18.60;46.80;;;;;;5054887;28;20422;-68
2023/02/22 02:52:29;;;;;;;4.53;3.57;;;18.60;46.80;;;;;;5054701;28;20425;-68
2023/02/22 02:54:55;;;;;;;3.93;3.60;;;18.60;46.80;;;;;;5054538;28;20510;-69
2023/02/22 02:57:21;;;;;;;3.70;3.40;;;18.60;46.70;;;;;;5054547;28;20406;-68
2023/02/22 02:59:47;;;;;;;4.10;3.67;;;18.60;46.70;;;;;;5054378;28;20893;-68
2023/02/22 03:02:24;;;;;;;3.70;3.40;;;18.60;46.70;;;;;;5054478;28;20204;-69
2023/02/22 03:05:28;;;;;;;4.90;4.40;;;18.60;46.70;;;;;;5054395;28;20553;-69
2023/02/22 03:08:12;;;;;;;4.87;4.27;;;18.60;47.20;;;;;;5054221;28;20408;-69
2023/02/22 03:10:37;;;;;;;3.20;3.00;;;18.60;46.70;;;;;;5054146;28;20567;-69
2023/02/22 03:13:06;;;;;;;4.03;3.57;;;18.60;46.70;;;;;;5054366;28;20497;-68
2023/02/22 03:16:17;;;;;;;4.47;4.07;;;18.60;46.70;;;;;;5053999;28;20638;-68
2023/02/22 03:19:07;;;;;;;4.50;4.10;;;18.60;46.60;;;;;;5031921;28;20525;-68
2023/02/22 03:21:41;;;;;;;4.27;3.87;;;18.50;46.60;;;;;;5052898;28;20433;-68
2023/02/22 03:24:44;;;;;;;4.47;4.07;;;18.50;46.60;;;;;;5053653;28;20401;-68
2023/02/22 03:27:22;;;;;;;4.27;3.87;;;18.50;46.60;;;;;;5031732;28;20424;-69
2023/02/22 03:29:51;;;;;;;3.90;3.60;;;18.50;46.60;;;;;;5031956;28;20922;-68
2023/02/22 03:32:23;;;;;;;3.90;3.60;;;18.50;46.60;;;;;;5031893;28;20438;-69
2023/02/22 03:34:56;;;;;;;4.27;3.87;;;18.50;46.60;;;;;;5032152;28;20450;-69
2023/02/22 03:37:27;;;;;;;6.20;3.50;;;18.50;46.50;;;;;;5031650;28;20813;-69
2023/02/22 03:39:55;;;;;;;4.93;3.93;;;18.50;46.50;;;;;;5031706;28;20927;-68
2023/02/22 03:42:25;;;;;;;3.60;3.27;;;18.50;46.50;;;;;;5031537;28;20430;-68
2023/02/22 03:44:54;;;;;;;3.83;3.40;;;18.50;46.50;;;;;;5031773;28;20414;-69
2023/02/22 03:47:28;;;;;;;3.70;3.40;;;18.50;46.50;;;;;;5031725;28;20421;-68
2023/02/22 03:50:05;;;;;;;4.27;3.87;;;18.50;46.50;;;;;;5031477;28;20411;-68
2023/02/22 03:52:33;;;;;;;4.60;3.83;;;18.50;46.40;;;;;;5031712;28;20425;-69
2023/02/22 03:55:00;;;;;;;3.70;3.40;;;18.50;46.40;;;;;;5031634;28;20490;-69
2023/02/22 03:57:30;;;;;;;4.30;3.90;;;18.50;46.40;;;;;;5038370;28;20418;-70
2023/02/22 03:59:55;;;;;;;4.53;4.03;;;18.50;46.40;;;;;;5053425;28;20437;-69
2023/02/22 04:02:22;;;;;;;4.27;3.43;;;18.50;46.30;;;;;;5053441;28;20428;-69
2023/02/22 04:04:48;;;;;;;3.90;3.50;;;18.50;46.40;;;;;;5053369;28;20271;-69
2023/02/22 04:07:14;;;;;;;3.90;3.50;;;18.50;46.40;;;;;;5053584;28;20788;-69
2023/02/22 04:09:40;;;;;;;4.10;3.70;;;18.40;46.30;;;;;;5053571;28;20414;-69
2023/02/22 04:12:06;;;;;;;3.60;3.30;;;18.40;46.20;;;;;;5053343;28;20443;-69
2023/02/22 04:14:31;;;;;;;3.53;3.20;;;18.50;46.30;;;;;;5053059;28;20214;-69
2023/02/22 04:16:57;;;;;;;4.83;3.63;;;18.50;46.30;;;;;;5051978;28;20179;-69
2023/02/22 04:19:23;;;;;;;3.63;3.33;;;18.40;46.20;;;;;;5053453;28;20175;-69
2023/02/22 04:21:48;;;;;;;3.63;3.33;;;18.40;46.20;;;;;;5053343;28;20286;-69
2023/02/22 04:24:14;;;;;;;3.47;3.17;;;18.40;46.20;;;;;;5053395;28;20623;-70
2023/02/22 04:26:40;;;;;;;4.10;3.70;;;18.40;46.20;;;;;;5053551;28;20538;-68
2023/02/22 04:29:06;;;;;;;3.90;3.60;;;18.40;46.20;;;;;;5053209;28;20200;-68
2023/02/22 04:31:32;;;;;;;3.83;3.47;;;18.40;46.20;;;;;;5053001;28;20206;-68
2023/02/22 04:33:58;;;;;;;4.13;3.73;;;18.40;46.20;;;;;;5052963;28;20217;-68
2023/02/22 04:36:25;;;;;;;3.60;3.30;;;18.40;46.20;;;;;;5055590;28;20827;-68
2023/02/22 04:38:51;;;;;;;3.90;3.57;;;18.30;46.10;;;;;;5057214;28;20478;-67
2023/02/22 04:41:18;;;;;;;3.80;3.50;;;18.40;46.10;;;;;;5057006;28;20528;-68
2023/02/22 04:43:44;;;;;;;3.57;3.27;;;18.40;46.10;;;;;;5056825;28;20586;-68
2023/02/22 04:46:10;;;;;;;3.67;3.30;;;18.40;46.10;;;;;;5057158;28;20413;-68
2023/02/22 04:48:35;;;;;;;3.63;3.33;;;18.40;46.10;;;;;;5056850;28;20424;-67
2023/02/22 04:51:01;;;;;;;3.73;3.20;;;18.30;46.10;;;;;;5056626;28;20441;-67
2023/02/22 04:53:27;;;;;;;3.60;3.30;;;18.30;46.10;;;;;;5057062;28;20183;-68
2023/02/22 04:55:52;;;;;;;3.83;3.40;;;18.30;46.00;;;;;;5056792;28;20199;-68
2023/02/22 04:58:18;;;;;;;3.43;3.13;;;18.30;46.00;;;;;;5055413;28;20190;-68
2023/02/22 05:00:44;;;;;;;3.30;3.00;;;18.30;46.00;;;;;;5056776;28;20206;-67
2023/02/22 05:03:09;;;;;;;3.80;3.50;;;18.30;46.10;;;;;;5056743;28;20207;-67
2023/02/22 05:05:35;;;;;;;4.20;3.80;;;18.30;46.00;;;;;;5056660;28;20179;-67
2023/02/22 05:08:00;;;;;;;3.50;3.20;;;18.30;46.00;;;;;;5056753;28;20186;-68
2023/02/22 05:10:26;;;;;;;4.10;3.70;;;18.30;46.00;;;;;;5056644;28;20233;-68
2023/02/22 05:12:52;;;;;;;4.37;3.53;;;18.30;46.00;;;;;;5056505;28;20175;-67
2023/02/22 05:15:20;;;;;;;4.47;3.47;;;18.30;46.00;;;;;;5056457;28;20729;-67
2023/02/22 05:17:46;;;;;;;3.70;3.40;;;18.30;46.00;;;;;;5056326;28;20190;-68
2023/02/22 05:20:33;;;;;;;3.40;3.00;;;18.30;46.00;;;;;;5056422;28;20448;-69
2023/02/22 05:23:00;;;;;;;4.53;3.67;;;18.30;46.00;;;;;;5056554;28;20878;-69
2023/02/22 05:25:26;;;;;;;3.60;3.30;;;18.30;46.00;;;;;;5055131;28;20445;-69
2023/02/22 05:27:57;;;;;;;3.60;3.30;;;18.30;46.00;;;;;;5056233;28;20466;-69
2023/02/22 05:30:26;;;;;;;4.07;3.70;;;18.30;46.00;;;;;;5056081;28;20452;-69
2023/02/22 05:32:52;;;;;;;3.53;3.17;;;18.20;45.90;;;;;;5056377;28;20406;-68
2023/02/22 05:35:20;;;;;;;3.60;3.23;;;18.20;45.90;;;;;;5056209;28;20798;-70
2023/02/22 05:37:46;;;;;;;3.80;3.40;;;18.30;45.90;;;;;;5056471;28;20163;-69
2023/02/22 05:40:16;;;;;;;3.97;3.67;;;18.20;45.90;;;;;;5056219;28;20414;-69
2023/02/22 05:42:41;;;;;;;3.50;3.30;;;18.20;45.90;;;;;;5056099;28;20167;-70
2023/02/22 05:45:08;;;;;;;3.80;3.40;;;18.20;45.90;;;;;;5055949;28;20428;-70
2023/02/22 05:47:33;;;;;;;4.13;3.73;;;18.20;45.90;;;;;;5054112;28;20256;-70
2023/02/22 05:50:01;;;;;;;4.40;2.90;;;18.20;45.90;;;;;;5055943;28;20406;-70
2023/02/22 05:52:27;;;;;;;3.97;3.60;;;18.20;45.90;;;;;;5055677;28;20168;-70
2023/02/22 05:54:52;;;;;;;3.63;3.27;;;18.20;45.90;;;;;;5055846;28;20457;-70
2023/02/22 05:57:18;;;;;;;3.37;3.10;;;18.20;45.80;;;;;;5055722;28;20236;-70
2023/02/22 05:59:43;;;;;;;3.53;3.23;;;18.20;45.90;;;;;;5055783;28;20228;-70
2023/02/22 06:02:09;;;;;;;3.63;3.33;;;18.20;45.90;;;;;;5055562;28;20198;-70
2023/02/22 06:04:35;;;;;;;3.77;3.47;;;18.20;45.90;;;;;;5055577;28;20170;-69
2023/02/22 06:07:00;;;;;;;3.70;3.30;;;18.20;45.90;;;;;;5055509;28;20314;-70
2023/02/22 06:09:26;;;;;;;4.40;3.57;;;18.20;45.90;;;;;;5055612;28;20163;-70
2023/02/22 06:11:52;;;;;;;4.17;3.10;;;18.20;45.90;;;;;;5055449;28;20187;-70
2023/02/22 06:14:17;;;;;;;6.33;3.73;;;18.20;45.80;;;;;;5055233;28;20597;-70
2023/02/22 06:16:43;;;;;;;3.50;3.00;;;18.20;45.80;;;;;;5055562;28;20167;-70
2023/02/22 06:19:08;;;;;;;3.73;3.30;;;18.10;45.80;;;;;;5055330;28;20213;-70
2023/02/22 06:21:34;;;;;;;3.93;3.63;;;18.10;45.80;;;;;;5055164;28;20195;-70
2023/02/22 06:24:02;;;;;;;3.33;3.03;;;18.20;45.80;;;;;;5055475;28;20255;-68
2023/02/22 06:26:28;;;;;;;4.10;3.70;;;18.10;45.70;;;;;;5055256;28;20175;-69
2023/02/22 06:28:54;;;;;;;4.53;4.13;;;18.10;45.70;;;;;;5055320;28;20960;-68
2023/02/22 06:31:20;;;;;;;3.77;3.30;;;18.10;45.70;;;;;;5055159;28;20216;-69
2023/02/22 06:33:45;;;;;;;3.73;3.43;;;18.10;45.80;;;;;;5054958;28;20655;-69
2023/02/22 06:36:11;;;;;;;4.33;3.50;;;18.10;45.80;;;;;;5055088;28;20171;-69
2023/02/22 06:38:37;;;;;;;4.57;4.00;;;18.10;45.70;;;;;;5055247;28;20171;-68
2023/02/22 06:41:02;;;;;;;4.57;3.07;;;18.10;45.80;;;;;;5054913;28;20198;-69
2023/02/22 06:43:28;;;;;;;3.57;3.27;;;18.10;45.70;;;;;;5053514;28;20175;-69
2023/02/22 06:45:53;;;;;;;4.23;3.83;;;18.10;45.80;;;;;;5054832;28;20190;-69
2023/02/22 06:48:19;;;;;;;4.83;3.40;;;18.10;45.70;;;;;;5054813;28;20167;-69
2023/02/22 06:50:45;;;;;;;3.40;3.10;;;18.10;45.70;;;;;;5054663;28;20191;-68
2023/02/22 06:53:10;;;;;;;4.57;4.17;;;18.10;45.70;;;;;;5054700;28;20175;-69
2023/02/22 06:55:36;;;;;;;4.53;3.57;;;18.10;45.70;;;;;;5054467;28;20655;-69
2023/02/22 06:58:03;;;;;;;4.40;3.80;;;18.10;45.70;;;;;;5053811;28;20207;-68
2023/02/22 07:00:31;;;;;;;3.67;3.37;;;18.10;45.70;;;;;;5054347;28;20183;-69
2023/02/22 07:02:57;;;;;;;3.77;3.43;;;18.10;45.70;;;;;;5054965;28;20401;-68
2023/02/22 07:05:24;;;;;;;4.50;3.57;;;18.10;45.70;;;;;;5054577;28;20414;-68
2023/02/22 07:07:53;;;;;;;4.87;3.67;;;18.10;45.70;;;;;;5054300;28;20498;-68
2023/02/22 07:10:26;;;;;;;3.90;3.57;;;18.10;45.70;;;;;;5054345;28;20405;-68
2023/02/22 07:12:52;;;;;;;4.00;3.70;;;18.00;45.60;;;;;;5054262;28;20795;-68
2023/02/22 07:15:20;;;;;;;4.20;3.80;;;18.10;45.70;;;;;;5054212;28;20488;-69
2023/02/22 07:17:46;;;;;;;3.80;3.40;;;18.00;45.60;;;;;;5054406;28;20406;-68
2023/02/22 07:20:12;;;;;;;3.93;3.33;;;18.10;45.70;;;;;;5054107;28;20455;-68
2023/02/22 07:22:38;;;;;;;4.63;3.80;;;18.00;45.60;;;;;;5053950;28;20876;-67
2023/02/22 07:25:11;;;;;;;3.53;3.20;;;18.10;45.70;;;;;;5053924;28;20263;-68
2023/02/22 07:27:40;;;;;;;4.37;3.73;;;18.10;45.70;;;;;;5054334;28;20408;-68
2023/02/22 07:30:15;;;;;;;4.43;3.80;;;18.00;45.60;;;;;;5053832;28;20433;-68
2023/02/22 07:32:45;;;;;;;3.57;3.27;;;18.10;45.70;;;;;;5053868;28;20951;-69
2023/02/22 07:35:15;;;;;;;3.87;3.40;;;18.00;45.60;;;;;;5053724;28;20457;-68
2023/02/22 07:37:41;;;;;;;5.03;4.30;;;18.00;45.60;;;;;;5053669;28;20412;-69
2023/02/22 07:40:07;;;;;;;4.20;3.80;;;18.00;45.60;;;;;;5053890;28;20771;-68
2023/02/22 07:45:17;;;;;;;4.50;3.80;;;18.00;45.60;;;;;;5075836;22;20523;-70
2023/02/22 07:47:42;;;;;;;3.97;3.53;;;18.00;45.60;;;;;;5052879;28;20452;-70
2023/02/22 07:50:08;;;;;;;3.23;2.93;;;18.00;45.60;;;;;;5052847;28;20729;-71
2023/02/22 07:52:33;;;;;;;4.67;3.20;;;18.00;45.60;;;;;;5052904;28;20258;-71
2023/02/22 07:54:59;;;;;;;4.20;3.80;;;18.00;45.60;;;;;;5052107;28;20210;-73
2023/02/22 07:57:25;;;;;;;3.70;3.40;;;18.00;45.60;;;;;;5034398;28;20167;-72
2023/02/22 07:59:50;;;;;;;4.43;4.03;;;18.00;45.60;;;;;;5052651;28;20163;-71
2023/02/22 08:02:16;;;;;;;4.73;4.33;;;18.00;45.60;;;;;;5052592;28;20509;-71
2023/02/22 08:04:42;;;;;;;3.90;3.60;;;18.00;45.60;;;;;;5052828;28;20693;-70
2023/02/22 08:07:07;;;;;;;3.73;3.00;;;18.00;45.50;;;;;;5052402;28;20208;-71
2023/02/22 08:09:33;;;;;;;3.93;3.53;;;18.00;45.60;;;;;;5052188;28;20539;-70
2023/02/22 08:11:59;;;;;;;4.50;3.30;;;18.00;45.50;;;;;;5052325;28;20167;-70
2023/02/22 08:14:24;;;;;;;4.43;3.60;;;18.00;45.50;;;;;;5052128;28;20356;-70
2023/02/22 08:16:50;;;;;;;3.90;3.40;;;18.00;45.50;;;;;;5052091;28;20511;-69
2023/02/22 08:19:15;;;;;;;4.20;3.50;;;18.00;45.60;;;;;;5052199;28;20201;-70
2023/02/22 08:21:41;;;;;;;4.53;3.60;;;18.00;45.70;;;;;;5052551;28;20170;-71
2023/02/22 08:24:06;;;;;;;5.40;3.60;;;18.00;45.80;;;;;;5052102;28;20234;-70
2023/02/22 08:26:32;;;;;;;5.13;3.90;;;18.00;46.00;;;;;;5052129;28;20504;-70
2023/02/22 08:28:58;;;;;;;4.53;3.43;;;18.00;46.30;;;;;;5053559;28;20170;-71
2023/02/22 08:31:23;;;;;;;3.33;3.03;;;18.10;46.50;;;;;;5052351;28;20550;-75
2023/02/22 08:33:49;;;;;;;3.20;2.90;;;18.10;46.80;;;;;;5034036;28;20233;-70
2023/02/22 08:36:15;;;;;;;5.30;3.53;;;18.10;46.90;;;;;;5052192;28;20247;-70
2023/02/22 08:38:40;;;;;;;5.37;3.23;;;18.20;47.00;;;;;;5052227;28;20171;-69
2023/02/22 08:41:06;;;;;;;6.20;3.40;;;18.30;46.80;;;;;;5052170;28;20175;-69
2023/02/22 08:43:32;;;;;;;4.23;3.13;;;18.30;46.80;;;;;;5051866;28;20232;-70
2023/02/22 08:45:57;;;;;;;6.33;3.33;;;18.30;46.80;;;;;;5052715;28;20167;-70
2023/02/22 08:48:23;;;;;;;5.70;3.50;;;18.40;47.00;;;;;;5052694;28;20254;-71
2023/02/22 08:50:48;;;;;;;4.97;4.47;;;18.50;47.00;;;;;;5052202;28;20167;-73
2023/02/22 08:53:15;;;;;;;4.70;3.30;;;18.50;47.10;;;;;;5052322;28;20274;-72
2023/02/22 08:55:41;;;;;;;5.83;3.43;;;18.50;47.70;;;;;;5052464;28;20267;-70
2023/02/22 08:58:08;;;;;;;6.13;3.70;;;18.60;47.70;;;;;;5034519;28;20413;-71
2023/02/22 09:00:34;;;;;;;4.73;3.27;;;18.60;47.90;;;;;;5052520;28;20208;-71
2023/02/22 09:03:04;;;;;;;3.73;3.33;;;18.60;48.00;;;;;;5052492;28;20484;-72
2023/02/22 09:05:30;;;;;;;5.07;3.37;;;18.60;47.70;;;;;;5052481;28;20486;-72
2023/02/22 09:07:56;;;;;;;3.33;2.90;;;18.70;48.10;;;;;;5052458;28;20398;-71
2023/02/22 09:10:25;;;;;;;4.33;3.93;;;18.70;48.20;;;;;;5034490;28;20425;-71
2023/02/22 09:12:54;;;;;;;4.67;3.17;;;18.80;47.90;;;;;;5052398;28;20405;-71
2023/02/22 09:15:21;;;;;;;4.13;3.10;;;18.80;47.90;;;;;;5052365;28;20455;-70
2023/02/22 09:17:47;;;;;;;4.23;2.70;;;18.80;47.80;;;;;;5052457;28;20404;-69
2023/02/22 09:20:13;;;;;;;9.83;2.90;;;18.90;47.70;;;;;;5052382;28;20481;-71
2023/02/22 09:22:39;;;;;;;3.63;3.23;;;18.90;47.50;;;;;;5055697;28;20509;-70
2023/02/22 09:25:06;;;;;;;3.90;3.60;;;18.90;47.40;;;;;;5055901;28;20432;-70
2023/02/22 09:27:32;;;;;;;3.53;3.13;;;18.90;47.60;;;;;;5056153;28;20410;-69
2023/02/22 09:29:57;;;;;;;3.20;2.90;;;18.90;47.60;;;;;;5055888;28;20417;-72
2023/02/22 09:32:26;;;;;;;8.10;3.47;;;19.00;47.50;;;;;;5038102;28;20269;-70
2023/02/22 09:34:52;;;;;;;4.67;3.60;;;19.00;47.50;;;;;;5055529;28;20286;-69
2023/02/22 09:37:18;;;;;;;14.50;4.10;;;18.90;47.50;;;;;;5055486;28;20429;-69
2023/02/22 09:39:44;;;;;;;6.57;2.97;;;19.00;47.50;;;;;;5055690;28;20402;-69
2023/02/22 09:42:39;;;;;;;4.20;3.57;;;19.00;47.50;;;;;;5055615;28;20216;-70
2023/02/22 09:45:15;;;;;;;5.00;3.37;;;19.00;47.40;;;;;;5055558;28;20541;-71
2023/02/22 09:48:01;;;;;;;5.30;3.40;;;18.90;47.30;;;;;;5055865;28;20397;-71
2023/02/22 09:50:36;;;;;;;4.50;3.27;;;19.00;47.30;;;;;;5055413;28;20429;-71
2023/02/22 09:53:30;;;;;;;3.57;3.27;;;18.90;47.20;;;;;;5055681;28;20483;-71
2023/02/22 09:56:11;;;;;;;5.00;3.30;;;19.00;47.40;;;;;;5046206;28;20429;-71
2023/02/22 09:58:46;;;;;;;3.60;3.13;;;19.00;47.30;;;;;;5055464;28;20451;-71
2023/02/22 10:01:37;;;;;;;5.20;4.70;;;18.90;47.20;;;;;;5055411;28;20389;-71
2023/02/22 10:04:17;;;;;;;4.00;3.60;;;19.00;47.20;;;;;;5037347;28;20462;-70
2023/02/22 10:07:07;;;;;;;3.60;3.30;;;18.90;47.30;;;;;;5055245;28;20969;-70
2023/02/22 10:09:41;;;;;;;4.47;3.50;;;18.90;47.40;;;;;;5004388;28;20919;-70
2023/02/22 10:12:21;;;;;;;4.53;3.90;;;18.80;47.50;;;;;;5055557;28;20397;-70
2023/02/22 10:15:14;;;;;;;5.10;3.40;;;18.90;47.50;;;;;;5037215;28;20444;-70
2023/02/22 10:17:57;;;;;;;6.40;3.53;;;18.90;47.50;;;;;;5055218;28;20401;-70
2023/02/22 10:20:27;;;;;;;5.27;3.80;;;18.90;47.30;;;;;;5054903;28;20410;-71
2023/02/22 10:23:16;;;;;;;8.13;3.80;;;18.90;47.30;;;;;;5054775;28;20763;-71
2023/02/22 10:25:44;;;;;;;4.13;3.50;;;18.90;47.50;;;;;;5054012;28;20465;-70
2023/02/22 10:28:51;;;;;;;4.57;3.40;;;18.90;47.50;;;;;;5054652;28;20411;-70
2023/02/22 10:31:25;;;;;;;4.70;3.40;;;19.00;47.70;;;;;;5040876;28;20951;-70
2023/02/22 10:33:59;;;;;;;4.70;3.67;;;19.00;47.60;;;;;;5054489;28;20448;-70
2023/02/22 10:36:26;;;;;;;4.13;3.73;;;19.00;47.40;;;;;;5036744;28;20418;-69
2023/02/22 10:39:26;;;;;;;3.77;3.47;;;19.10;47.40;;;;;;5054670;28;20844;-70
2023/02/22 10:41:56;;;;;;;4.20;3.90;;;19.10;47.30;;;;;;5022429;28;20502;-70
2023/02/22 10:44:22;;;;;;;3.60;3.30;;;19.10;47.90;;;;;;5035811;28;20485;-70
2023/02/22 10:46:49;;;;;;;3.67;3.10;;;19.20;47.30;;;;;;5054335;28;20404;-70
2023/02/22 10:49:20;;;;;;;4.00;3.60;;;19.20;47.30;;;;;;5054396;28;20402;-71
2023/02/22 10:51:56;;;;;;;4.57;4.17;;;19.20;47.30;;;;;;5054076;28;20761;-69
2023/02/22 10:54:27;;;;;;;4.90;3.57;;;19.20;47.20;;;;;;5054345;28;20429;-68
2023/02/22 10:56:55;;;;;;;4.10;3.70;;;19.20;47.20;;;;;;5055414;28;20500;-73
2023/02/22 10:59:38;;;;;;;4.30;3.90;;;19.20;47.40;;;;;;5053984;28;20742;-70
2023/02/22 11:02:31;;;;;;;7.50;3.80;;;19.20;47.40;;;;;;5054006;28;20410;-70
2023/02/22 11:04:59;;;;;;;4.10;3.37;;;19.20;47.50;;;;;;5053595;28;20457;-71
2023/02/22 11:07:32;;;;;;;3.63;3.33;;;19.20;47.40;;;;;;5053715;28;20921;-71
2023/02/22 11:10:03;;;;;;;4.00;3.60;;;19.30;47.50;;;;;;5053997;28;20484;-71
2023/02/22 11:12:36;;;;;;;5.27;3.60;;;19.30;47.40;;;;;;5053852;28;20433;-71
2023/02/22 11:15:21;;;;;;;4.10;3.70;;;19.30;47.30;;;;;;5053614;28;20421;-71
2023/02/22 11:17:50;;;;;;;3.80;3.50;;;19.40;47.30;;;;;;5053440;28;20892;-70
2023/02/22 11:20:24;;;;;;;3.60;3.20;;;19.40;47.30;;;;;;5056510;28;20413;-69
2023/02/22 11:22:53;;;;;;;3.73;3.43;;;19.40;47.30;;;;;;5036337;28;20913;-70
2023/02/22 11:25:23;;;;;;;4.47;3.37;;;19.40;47.40;;;;;;5053763;28;20468;-70
2023/02/22 11:27:50;;;;;;;3.67;3.27;;;19.40;47.40;;;;;;5053936;28;20449;-69
2023/02/22 11:30:30;;;;;;;4.17;3.73;;;19.50;48.10;;;;;;5053866;28;20444;-70
2023/02/22 11:33:22;;;;;;;4.10;3.20;;;19.50;47.40;;;;;;5053642;28;20455;-70
2023/02/22 11:35:56;;;;;;;5.77;3.40;;;19.50;47.40;;;;;;5053613;28;20411;-70
2023/02/22 11:38:27;;;;;;;5.30;4.80;;;19.50;47.30;;;;;;5053503;28;20406;-69
2023/02/22 11:41:23;;;;;;;4.70;3.60;;;19.50;47.40;;;;;;5053527;28;20408;-70
2023/02/22 11:43:50;;;;;;;4.27;3.50;;;19.50;47.40;;;;;;5053033;28;20461;-71
2023/02/22 11:46:17;;;;;;;3.90;3.40;;;19.50;47.40;;;;;;5053902;28;20484;-72
2023/02/22 11:48:59;;;;;;;3.73;2.70;;;19.60;47.40;;;;;;5053475;28;20912;-71
2023/02/22 11:51:49;;;;;;;3.43;3.07;;;19.60;47.30;;;;;;5053572;28;20414;-71
2023/02/22 11:54:33;;;;;;;3.33;3.03;;;19.60;47.20;;;;;;5053527;28;20421;-71
2023/02/22 11:57:08;;;;;;;4.10;3.60;;;19.60;47.20;;;;;;5053340;28;20401;-71
2023/02/22 11:59:51;;;;;;;4.17;3.23;;;19.70;47.10;;;;;;5053032;28;20412;-70
2023/02/22 12:02:47;;;;;;;3.53;3.23;;;19.70;47.20;;;;;;5054732;28;20756;-69
2023/02/22 12:05:41;;;;;;;4.07;3.50;;;19.70;47.60;;;;;;5053056;28;20453;-70
2023/02/22 12:08:25;;;;;;;3.47;3.13;;;19.70;47.60;;;;;;5052952;28;20381;-68
2023/02/22 12:11:12;;;;;;;8.47;3.30;;;19.70;47.80;;;;;;5053172;28;20408;-67
2023/02/22 12:13:43;;;;;;;3.60;3.20;;;19.70;48.70;;;;;;5052985;28;20421;-67
2023/02/22 12:16:42;;;;;;;4.40;4.00;;;19.70;48.80;;;;;;5053417;28;20420;-69
2023/02/22 12:19:14;;;;;;;4.10;3.30;;;19.80;48.90;;;;;;5053225;28;20441;-70
2023/02/22 12:21:42;;;;;;;3.50;3.20;;;19.80;49.40;;;;;;5034979;28;20421;-68
2023/02/22 12:24:43;;;;;;;3.73;3.37;;;19.80;49.70;;;;;;5053160;28;20808;-69
2023/02/22 12:27:18;;;;;;;4.97;3.73;;;19.80;49.60;;;;;;5035631;28;20500;-69
2023/02/22 12:29:46;;;;;;;3.87;3.30;;;19.90;49.60;;;;;;5052803;28;20425;-71
2023/02/22 12:32:31;;;;;;;3.60;3.30;;;19.90;50.00;;;;;;5035186;28;20417;-71
2023/02/22 12:35:04;;;;;;;4.33;3.40;;;19.90;50.50;;;;;;5053028;28;20849;-71
2023/02/22 12:37:53;;;;;;;6.13;5.27;;;19.90;51.00;;;;;;5052955;28;20401;-69
2023/02/22 12:40:39;;;;;;;5.33;4.80;;;19.90;49.70;;;;;;5052774;28;20401;-69
2023/02/22 12:43:15;;;;;;;6.40;5.30;;;19.90;49.50;;;;;;5034560;28;20552;-70
2023/02/22 12:45:47;;;;;;;6.70;5.17;;;19.90;49.30;;;;;;5052647;28;20475;-70
2023/02/22 12:48:40;;;;;;;5.10;4.47;;;19.90;48.60;;;;;;5034657;28;20497;-70
2023/02/22 12:51:25;;;;;;;5.10;4.57;;;19.90;48.90;;;;;;5034557;28;20437;-68
2023/02/22 12:54:31;;;;;;;6.40;4.43;;;19.90;48.90;;;;;;5052592;28;20553;-70
2023/02/22 12:57:17;;;;;;;7.97;6.03;;;19.90;48.80;;;;;;4954463;28;20424;-69
2023/02/22 12:59:50;;;;;;;6.53;5.27;;;19.80;48.90;;;;;;5053392;28;20418;-70
2023/02/22 13:02:42;;;;;;;4.90;4.30;;;19.80;48.70;;;;;;5056351;28;20405;-70
2023/02/22 13:05:15;;;;;;;6.50;5.47;;;19.80;48.60;;;;;;5038268;28;20491;-70
2023/02/22 13:07:46;;;;;;;9.87;4.63;;;19.80;49.70;;;;;;5056038;28;20428;-69
2023/02/22 13:10:25;;;;;;;4.83;4.00;;;19.80;49.40;;;;;;5056150;28;20409;-70
2023/02/22 13:13:12;;;;;;;4.90;4.40;;;19.90;49.30;;;;;;5056344;28;20397;-71